Airfield :
LOGIN :

Register | Disclaimer

   EN    FR    IT 

 










Legend :    VFR   Marginal VFR   IFR   Intensive IFR   Very Intensive IFR
Visi :
Ceiling :
>= 8 km
>= 3000ft
5 to 8 km
1000 to 3000 ft
1500m to 5 km
500 to 1000 ft
800 to 1500m
200 to 500 ft
< 800m
< 200 ft
Symbols :   Thunderstorms  Fog  Heavy snow  Heavy precipitations  Wind > 20 kt
SIGMETs :     Misc.  Thunderstorms  Icing  Turbulence  Mountain Waves  Volcanic Ashes







- Airport Elevation : 1036 ft
- IATA code : ERF


EDDE - Erfurt

CURRENT METAR :
  • 221220Z 29015KT 9999 VCSH FEW013 SCT023 BKN048 13/08 Q1021 TEMPO 31015G25KT

EXPIRED METARs :
  • 221150Z 31017KT 9999 FEW015 SCT022 BKN048 12/08 Q1021 TEMPO 31015G25KT
  • 221120Z 32017KT 9999 VCSH FEW015 SCT022 BKN060 12/09 Q1020 TEMPO 32015G25KT
  • 221050Z 30013KT 9999 VCSH FEW010 SCT020 BKN040 11/09 Q1020 TEMPO 30015G25KT
  • 221020Z 27013KT 9999 -RA FEW010 BKN020 10/08 Q1020 TEMPO 27015G25KT
  • 220950Z 28015KT 9999 -RADZ SCT015 BKN022 09/08 Q1020 TEMPO 25015G25KT

TAF TAF EDDE
Valid from the 22 at 12:00 until the 23 at 12:00 UTC


221100Z 2212/2312 30013KT 9999 SCT030
PROB40
TEMPO 2212/2217 30020G30KT TSRA BKN030CB
BECMG 2216/2219 28008KT
BECMG 2303/2306 29013KT
PROB30
TEMPO 2306/2312 29015G25KT RA
No reported NOTAMs for that airfield.



MET'MAP, your aeronautical weather chart ! - Copyright ORBIFLY December 2007 - Disclaimer

ORBIFLY MET'MAP TEAM :

Programming & Development : Alexandra Zaïnal
Concept & Development : Baudouin d'Aumeries
Co-Development & Prog : Marc-Olivier Méhu
Technical & hardware support : Manuel Goepfert

Contact : metmap@orbifly.com




SOURCES & CREDITS :

   NOAA